Terminal Aerodrome Forecast
Issued by NWS

Home | Current Version | Previous Version | Text Only | Print | Product List | Glossary On
Versions: 1 2 3 4 5 6 7 8 9 10 11 12 13 14 15 16 17 18 19 20 21 22
000
FTUS41 KBGM 310534
TAFELM
TAF
KELM 310534Z 3106/0106 VRB03KT 3SM BR SCT002
      TEMPO 3106/3108 1/2SM FG VV002
     FM310800 00000KT 1/2SM FG VV002
      TEMPO 3112/3114 3SM BR SCT003
     FM311400 28010KT P6SM BKN050
     FM312300 VRB03KT P6SM SKC=

USA.gov is the U.S. government's official web portal to all federal, state and local government web resources and services.